sensor_id;sensor_type;location;lat;lon;timestamp;temperature;humidity
32215;DHT22;18708;53.124;23.190;2023-08-17T00:00:32;21.70;1.00
32215;DHT22;18708;53.124;23.190;2023-08-17T00:02:57;21.60;99.90
32215;DHT22;18708;53.124;23.190;2023-08-17T00:05:23;21.60;99.90
32215;DHT22;18708;53.124;23.190;2023-08-17T00:07:48;21.50;99.90
32215;DHT22;18708;53.124;23.190;2023-08-17T00:10:14;21.50;1.00
32215;DHT22;18708;53.124;23.190;2023-08-17T00:12:39;21.40;1.00
32215;DHT22;18708;53.124;23.190;2023-08-17T00:15:05;21.40;99.90
32215;DHT22;18708;53.124;23.190;2023-08-17T00:17:31;21.30;1.00
32215;DHT22;18708;53.124;23.190;2023-08-17T00:19:58;21.30;1.00
32215;DHT22;18708;53.124;23.190;2023-08-17T00:22:24;21.20;1.00
32215;DHT22;18708;53.124;23.190;2023-08-17T00:24:49;21.10;99.90
32215;DHT22;18708;53.124;23.190;2023-08-17T00:27:15;21.20;1.00
32215;DHT22;18708;53.124;23.190;2023-08-17T00:29:40;21.30;48.10
32215;DHT22;18708;53.124;23.190;2023-08-17T00:32:06;21.30;1.00
32215;DHT22;18708;53.124;23.190;2023-08-17T00:34:32;21.20;99.90
32215;DHT22;18708;53.124;23.190;2023-08-17T00:36:58;21.30;99.90
32215;DHT22;18708;53.124;23.190;2023-08-17T00:39:23;21.30;1.00
32215;DHT22;18708;53.124;23.190;2023-08-17T00:41:49;21.20;1.00
32215;DHT22;18708;53.124;23.190;2023-08-17T00:44:14;21.20;99.90
32215;DHT22;18708;53.124;23.190;2023-08-17T00:46:40;22.30;99.90
32215;DHT22;18708;53.124;23.190;2023-08-17T00:49:06;21.10;99.90
32215;DHT22;18708;53.124;23.190;2023-08-17T00:51:32;21.10;1.00
32215;DHT22;18708;53.124;23.190;2023-08-17T00:53:58;21.20;99.90
32215;DHT22;18708;53.124;23.190;2023-08-17T00:56:24;21.10;99.90
32215;DHT22;18708;53.124;23.190;2023-08-17T00:58:49;20.90;99.90
32215;DHT22;18708;53.124;23.190;2023-08-17T01:01:16;20.90;99.90
32215;DHT22;18708;53.124;23.190;2023-08-17T01:03:41;20.90;1.00
32215;DHT22;18708;53.124;23.190;2023-08-17T01:06:07;20.90;1.00
32215;DHT22;18708;53.124;23.190;2023-08-17T01:08:33;20.90;1.00
32215;DHT22;18708;53.124;23.190;2023-08-17T01:16:08;20.80;1.00
32215;DHT22;18708;53.124;23.190;2023-08-17T01:18:36;20.70;18.70
32215;DHT22;18708;53.124;23.190;2023-08-17T01:21:05;20.60;1.00
32215;DHT22;18708;53.124;23.190;2023-08-17T01:23:31;20.50;1.00
32215;DHT22;18708;53.124;23.190;2023-08-17T01:25:57;20.40;1.00
32215;DHT22;18708;53.124;23.190;2023-08-17T01:28:22;20.40;99.00
32215;DHT22;18708;53.124;23.190;2023-08-17T01:33:20;20.40;99.90
32215;DHT22;18708;53.124;23.190;2023-08-17T01:35:50;20.30;99.90
32215;DHT22;18708;53.124;23.190;2023-08-17T01:38:20;20.30;1.00
32215;DHT22;18708;53.124;23.190;2023-08-17T01:40:47;20.30;1.00
32215;DHT22;18708;53.124;23.190;2023-08-17T01:43:13;20.30;1.00
32215;DHT22;18708;53.124;23.190;2023-08-17T01:45:38;20.30;1.00
32215;DHT22;18708;53.124;23.190;2023-08-17T01:48:04;20.30;44.50
32215;DHT22;18708;53.124;23.190;2023-08-17T01:50:30;20.50;1.00
32215;DHT22;18708;53.124;23.190;2023-08-17T01:52:55;20.50;1.00
32215;DHT22;18708;53.124;23.190;2023-08-17T01:55:21;20.30;1.00
32215;DHT22;18708;53.124;23.190;2023-08-17T01:57:48;20.20;99.90
32215;DHT22;18708;53.124;23.190;2023-08-17T02:00:14;20.10;99.90
32215;DHT22;18708;53.124;23.190;2023-08-17T02:02:40;20.00;99.90
32215;DHT22;18708;53.124;23.190;2023-08-17T02:05:06;20.00;1.00
32215;DHT22;18708;53.124;23.190;2023-08-17T02:07:31;20.00;99.90
32215;DHT22;18708;53.124;23.190;2023-08-17T02:09:57;20.00;1.00
32215;DHT22;18708;53.124;23.190;2023-08-17T02:12:22;20.00;99.90
32215;DHT22;18708;53.124;23.190;2023-08-17T02:14:48;19.90;1.00
32215;DHT22;18708;53.124;23.190;2023-08-17T02:17:14;20.00;1.00
32215;DHT22;18708;53.124;23.190;2023-08-17T02:19:45;20.30;99.90
32215;DHT22;18708;53.124;23.190;2023-08-17T02:22:12;20.30;99.90
32215;DHT22;18708;53.124;23.190;2023-08-17T02:24:38;20.20;30.40
32215;DHT22;18708;53.124;23.190;2023-08-17T02:27:03;20.00;1.00
32215;DHT22;18708;53.124;23.190;2023-08-17T02:29:29;19.90;1.00
32215;DHT22;18708;53.124;23.190;2023-08-17T02:31:55;19.90;1.00
32215;DHT22;18708;53.124;23.190;2023-08-17T02:34:20;19.90;99.90
32215;DHT22;18708;53.124;23.190;2023-08-17T02:36:46;20.00;99.90
32215;DHT22;18708;53.124;23.190;2023-08-17T02:39:11;20.00;99.90
32215;DHT22;18708;53.124;23.190;2023-08-17T02:41:37;19.90;99.90
32215;DHT22;18708;53.124;23.190;2023-08-17T02:44:03;19.70;1.00
32215;DHT22;18708;53.124;23.190;2023-08-17T02:46:28;19.70;1.00
32215;DHT22;18708;53.124;23.190;2023-08-17T02:48:54;19.60;99.90
32215;DHT22;18708;53.124;23.190;2023-08-17T02:51:19;19.60;99.90
32215;DHT22;18708;53.124;23.190;2023-08-17T02:53:45;19.80;1.00
32215;DHT22;18708;53.124;23.190;2023-08-17T02:56:10;19.90;1.00
32215;DHT22;18708;53.124;23.190;2023-08-17T02:58:39;19.80;99.90
32215;DHT22;18708;53.124;23.190;2023-08-17T03:01:06;19.70;99.90
32215;DHT22;18708;53.124;23.190;2023-08-17T03:03:34;19.60;1.00
32215;DHT22;18708;53.124;23.190;2023-08-17T03:06:01;19.60;1.00
32215;DHT22;18708;53.124;23.190;2023-08-17T03:08:26;19.60;1.00
32215;DHT22;18708;53.124;23.190;2023-08-17T03:10:52;19.60;1.00
32215;DHT22;18708;53.124;23.190;2023-08-17T03:13:17;19.60;1.00
32215;DHT22;18708;53.124;23.190;2023-08-17T03:15:45;19.60;1.00
32215;DHT22;18708;53.124;23.190;2023-08-17T03:18:10;19.60;1.00
32215;DHT22;18708;53.124;23.190;2023-08-17T03:20:36;19.60;1.00
32215;DHT22;18708;53.124;23.190;2023-08-17T03:23:03;19.60;1.00
32215;DHT22;18708;53.124;23.190;2023-08-17T03:25:32;19.70;13.90
32215;DHT22;18708;53.124;23.190;2023-08-17T03:28:00;19.70;1.00
32215;DHT22;18708;53.124;23.190;2023-08-17T03:30:26;19.80;1.00
32215;DHT22;18708;53.124;23.190;2023-08-17T03:32:52;19.80;1.00
32215;DHT22;18708;53.124;23.190;2023-08-17T03:35:17;19.90;1.00
32215;DHT22;18708;53.124;23.190;2023-08-17T03:37:43;19.90;1.00
32215;DHT22;18708;53.124;23.190;2023-08-17T03:40:08;19.90;1.00
32215;DHT22;18708;53.124;23.190;2023-08-17T03:42:34;20.00;1.00
32215;DHT22;18708;53.124;23.190;2023-08-17T03:44:59;20.00;1.00
32215;DHT22;18708;53.124;23.190;2023-08-17T03:47:25;20.10;1.00
32215;DHT22;18708;53.124;23.190;2023-08-17T03:49:51;20.10;1.00
32215;DHT22;18708;53.124;23.190;2023-08-17T03:52:17;20.20;1.00
32215;DHT22;18708;53.124;23.190;2023-08-17T03:54:42;20.20;1.00
32215;DHT22;18708;53.124;23.190;2023-08-17T03:57:08;20.30;1.00
32215;DHT22;18708;53.124;23.190;2023-08-17T03:59:33;20.40;1.00
32215;DHT22;18708;53.124;23.190;2023-08-17T04:01:59;20.40;1.00
32215;DHT22;18708;53.124;23.190;2023-08-17T04:04:25;20.40;1.00
32215;DHT22;18708;53.124;23.190;2023-08-17T04:06:50;20.50;1.00
32215;DHT22;18708;53.124;23.190;2023-08-17T04:09:16;20.60;99.90
32215;DHT22;18708;53.124;23.190;2023-08-17T04:11:41;20.60;99.90
32215;DHT22;18708;53.124;23.190;2023-08-17T04:14:07;20.70;99.90
32215;DHT22;18708;53.124;23.190;2023-08-17T04:16:34;20.70;1.00
32215;DHT22;18708;53.124;23.190;2023-08-17T04:19:00;20.80;1.00
32215;DHT22;18708;53.124;23.190;2023-08-17T04:21:25;20.80;1.00
32215;DHT22;18708;53.124;23.190;2023-08-17T04:23:51;20.90;1.00
32215;DHT22;18708;53.124;23.190;2023-08-17T04:26:16;20.90;99.90
32215;DHT22;18708;53.124;23.190;2023-08-17T04:28:42;20.90;1.00
32215;DHT22;18708;53.124;23.190;2023-08-17T04:31:07;20.90;99.90
32215;DHT22;18708;53.124;23.190;2023-08-17T04:33:33;21.00;99.90
32215;DHT22;18708;53.124;23.190;2023-08-17T04:35:58;21.00;1.00
32215;DHT22;18708;53.124;23.190;2023-08-17T04:38:26;21.00;1.00
32215;DHT22;18708;53.124;23.190;2023-08-17T04:40:51;21.20;1.00
32215;DHT22;18708;53.124;23.190;2023-08-17T04:43:17;21.20;1.00
32215;DHT22;18708;53.124;23.190;2023-08-17T04:45:42;21.30;47.60
32215;DHT22;18708;53.124;23.190;2023-08-17T04:48:09;21.40;22.50
32215;DHT22;18708;53.124;23.190;2023-08-17T04:50:35;21.40;1.00
32215;DHT22;18708;53.124;23.190;2023-08-17T04:53:00;21.50;99.90
32215;DHT22;18708;53.124;23.190;2023-08-17T04:55:26;21.60;99.90
32215;DHT22;18708;53.124;23.190;2023-08-17T04:57:51;21.60;99.90
32215;DHT22;18708;53.124;23.190;2023-08-17T05:00:19;21.70;1.00
32215;DHT22;18708;53.124;23.190;2023-08-17T05:02:50;21.80;1.00
32215;DHT22;18708;53.124;23.190;2023-08-17T05:05:16;21.90;99.90
32215;DHT22;18708;53.124;23.190;2023-08-17T05:07:42;21.90;1.00
32215;DHT22;18708;53.124;23.190;2023-08-17T05:10:08;21.90;99.90
32215;DHT22;18708;53.124;23.190;2023-08-17T05:12:33;21.90;99.90
32215;DHT22;18708;53.124;23.190;2023-08-17T05:14:59;21.90;99.90
32215;DHT22;18708;53.124;23.190;2023-08-17T05:17:25;21.90;99.90
32215;DHT22;18708;53.124;23.190;2023-08-17T05:19:50;22.00;51.00
32215;DHT22;18708;53.124;23.190;2023-08-17T05:22:16;22.00;1.00
32215;DHT22;18708;53.124;23.190;2023-08-17T05:24:42;22.00;1.00
32215;DHT22;18708;53.124;23.190;2023-08-17T05:27:08;22.00;1.00
32215;DHT22;18708;53.124;23.190;2023-08-17T05:29:33;22.00;1.00
32215;DHT22;18708;53.124;23.190;2023-08-17T05:32:01;22.00;1.00
32215;DHT22;18708;53.124;23.190;2023-08-17T05:34:27;22.00;1.00
32215;DHT22;18708;53.124;23.190;2023-08-17T05:36:52;22.10;1.00
32215;DHT22;18708;53.124;23.190;2023-08-17T05:39:18;22.10;1.00
32215;DHT22;18708;53.124;23.190;2023-08-17T05:41:43;22.20;1.00
32215;DHT22;18708;53.124;23.190;2023-08-17T05:44:09;22.20;1.00
32215;DHT22;18708;53.124;23.190;2023-08-17T05:46:35;22.30;1.00
32215;DHT22;18708;53.124;23.190;2023-08-17T05:49:01;22.50;1.00
32215;DHT22;18708;53.124;23.190;2023-08-17T05:51:27;22.60;99.90
32215;DHT22;18708;53.124;23.190;2023-08-17T05:53:52;22.60;1.00
32215;DHT22;18708;53.124;23.190;2023-08-17T05:56:18;22.70;1.00
32215;DHT22;18708;53.124;23.190;2023-08-17T05:58:43;22.70;1.00
32215;DHT22;18708;53.124;23.190;2023-08-17T06:01:09;22.90;1.00
32215;DHT22;18708;53.124;23.190;2023-08-17T06:03:35;23.10;99.90
32215;DHT22;18708;53.124;23.190;2023-08-17T06:06:02;23.50;99.90
32215;DHT22;18708;53.124;23.190;2023-08-17T06:08:28;24.00;1.00
32215;DHT22;18708;53.124;23.190;2023-08-17T06:10:53;24.30;1.00
32215;DHT22;18708;53.124;23.190;2023-08-17T06:13:19;24.70;99.90
32215;DHT22;18708;53.124;23.190;2023-08-17T06:15:44;24.90;99.90
32215;DHT22;18708;53.124;23.190;2023-08-17T06:18:10;25.40;1.00
32215;DHT22;18708;53.124;23.190;2023-08-17T06:20:35;25.60;1.00
32215;DHT22;18708;53.124;23.190;2023-08-17T06:23:01;25.80;1.00
32215;DHT22;18708;53.124;23.190;2023-08-17T06:25:27;26.10;99.90
32215;DHT22;18708;53.124;23.190;2023-08-17T06:27:52;26.30;99.90
32215;DHT22;18708;53.124;23.190;2023-08-17T06:30:18;26.50;99.90
32215;DHT22;18708;53.124;23.190;2023-08-17T06:32:43;26.60;99.90
32215;DHT22;18708;53.124;23.190;2023-08-17T06:35:09;26.90;99.90
32215;DHT22;18708;53.124;23.190;2023-08-17T06:37:34;27.10;73.70
32215;DHT22;18708;53.124;23.190;2023-08-17T06:40:00;27.50;99.90
32215;DHT22;18708;53.124;23.190;2023-08-17T06:42:26;27.50;1.00
32215;DHT22;18708;53.124;23.190;2023-08-17T06:44:51;27.60;1.00
32215;DHT22;18708;53.124;23.190;2023-08-17T06:47:17;27.70;1.00
32215;DHT22;18708;53.124;23.190;2023-08-17T06:49:44;28.10;1.00
32215;DHT22;18708;53.124;23.190;2023-08-17T06:52:10;28.50;1.00
32215;DHT22;18708;53.124;23.190;2023-08-17T06:54:36;28.60;1.00
32215;DHT22;18708;53.124;23.190;2023-08-17T06:57:01;28.70;1.00
32215;DHT22;18708;53.124;23.190;2023-08-17T06:59:27;28.70;1.00
32215;DHT22;18708;53.124;23.190;2023-08-17T07:01:52;28.90;1.00
32215;DHT22;18708;53.124;23.190;2023-08-17T07:04:18;28.90;1.00
32215;DHT22;18708;53.124;23.190;2023-08-17T07:06:43;29.10;99.90
32215;DHT22;18708;53.124;23.190;2023-08-17T07:09:09;29.40;99.90
32215;DHT22;18708;53.124;23.190;2023-08-17T07:11:37;29.50;1.00
32215;DHT22;18708;53.124;23.190;2023-08-17T07:14:03;30.00;1.00
32215;DHT22;18708;53.124;23.190;2023-08-17T07:16:29;29.90;1.00
32215;DHT22;18708;53.124;23.190;2023-08-17T07:18:54;30.30;1.00
32215;DHT22;18708;53.124;23.190;2023-08-17T07:21:20;30.40;1.00
32215;DHT22;18708;53.124;23.190;2023-08-17T07:23:45;30.60;1.00
32215;DHT22;18708;53.124;23.190;2023-08-17T07:26:12;31.30;17.30
32215;DHT22;18708;53.124;23.190;2023-08-17T07:28:37;31.80;1.00
32215;DHT22;18708;53.124;23.190;2023-08-17T07:31:03;32.20;1.00
32215;DHT22;18708;53.124;23.190;2023-08-17T07:33:31;32.20;10.00
32215;DHT22;18708;53.124;23.190;2023-08-17T07:35:56;31.90;99.90
32215;DHT22;18708;53.124;23.190;2023-08-17T07:38:26;32.10;1.00
32215;DHT22;18708;53.124;23.190;2023-08-17T07:40:51;31.80;99.90
32215;DHT22;18708;53.124;23.190;2023-08-17T07:43:17;31.10;1.00
32215;DHT22;18708;53.124;23.190;2023-08-17T07:45:42;30.80;1.00
32215;DHT22;18708;53.124;23.190;2023-08-17T07:48:08;31.60;99.90
32215;DHT22;18708;53.124;23.190;2023-08-17T07:50:33;32.60;99.90
32215;DHT22;18708;53.124;23.190;2023-08-17T07:52:59;32.80;1.00
32215;DHT22;18708;53.124;23.190;2023-08-17T07:55:25;33.10;99.90
32215;DHT22;18708;53.124;23.190;2023-08-17T07:57:51;33.20;99.90
32215;DHT22;18708;53.124;23.190;2023-08-17T08:00:17;33.70;99.90
32215;DHT22;18708;53.124;23.190;2023-08-17T08:02:42;33.80;1.00
32215;DHT22;18708;53.124;23.190;2023-08-17T08:05:08;33.30;1.00
32215;DHT22;18708;53.124;23.190;2023-08-17T08:07:33;32.90;1.00
32215;DHT22;18708;53.124;23.190;2023-08-17T08:09:59;33.00;1.00
32215;DHT22;18708;53.124;23.190;2023-08-17T08:12:24;32.90;1.00
32215;DHT22;18708;53.124;23.190;2023-08-17T08:14:50;32.80;14.20
32215;DHT22;18708;53.124;23.190;2023-08-17T08:17:16;31.80;1.00
32215;DHT22;18708;53.124;23.190;2023-08-17T08:19:42;31.40;1.00
32215;DHT22;18708;53.124;23.190;2023-08-17T08:22:07;31.90;1.00
32215;DHT22;18708;53.124;23.190;2023-08-17T08:24:33;32.80;1.00
32215;DHT22;18708;53.124;23.190;2023-08-17T08:27:00;32.70;35.80
32215;DHT22;18708;53.124;23.190;2023-08-17T08:29:26;33.00;99.90
32215;DHT22;18708;53.124;23.190;2023-08-17T08:31:52;33.10;84.60
32215;DHT22;18708;53.124;23.190;2023-08-17T08:34:18;33.50;99.90
32215;DHT22;18708;53.124;23.190;2023-08-17T08:36:43;33.70;99.90
32215;DHT22;18708;53.124;23.190;2023-08-17T08:39:09;33.00;99.90
32215;DHT22;18708;53.124;23.190;2023-08-17T08:41:36;33.10;99.90
32215;DHT22;18708;53.124;23.190;2023-08-17T08:44:03;32.70;99.90
32215;DHT22;18708;53.124;23.190;2023-08-17T08:46:30;32.90;99.90
32215;DHT22;18708;53.124;23.190;2023-08-17T08:48:56;33.30;99.90
32215;DHT22;18708;53.124;23.190;2023-08-17T08:51:27;33.50;99.90
32215;DHT22;18708;53.124;23.190;2023-08-17T08:54:00;33.40;99.90
32215;DHT22;18708;53.124;23.190;2023-08-17T08:56:31;33.20;99.90
32215;DHT22;18708;53.124;23.190;2023-08-17T08:58:57;33.40;99.90
32215;DHT22;18708;53.124;23.190;2023-08-17T09:01:23;33.30;99.90
32215;DHT22;18708;53.124;23.190;2023-08-17T09:03:50;32.80;99.90
32215;DHT22;18708;53.124;23.190;2023-08-17T09:06:16;33.80;99.90
32215;DHT22;18708;53.124;23.190;2023-08-17T09:08:41;34.70;99.90
32215;DHT22;18708;53.124;23.190;2023-08-17T09:11:09;34.60;99.90
32215;DHT22;18708;53.124;23.190;2023-08-17T09:13:34;34.60;99.90
32215;DHT22;18708;53.124;23.190;2023-08-17T09:16:00;35.50;99.90
32215;DHT22;18708;53.124;23.190;2023-08-17T09:18:30;35.60;1.00
32215;DHT22;18708;53.124;23.190;2023-08-17T09:20:56;35.80;1.00
32215;DHT22;18708;53.124;23.190;2023-08-17T09:23:22;35.50;1.00
32215;DHT22;18708;53.124;23.190;2023-08-17T09:25:49;35.20;1.00
32215;DHT22;18708;53.124;23.190;2023-08-17T09:28:17;35.40;1.00
32215;DHT22;18708;53.124;23.190;2023-08-17T09:30:50;35.60;1.00
32215;DHT22;18708;53.124;23.190;2023-08-17T09:33:16;35.60;1.00
32215;DHT22;18708;53.124;23.190;2023-08-17T09:35:44;35.50;1.00
32215;DHT22;18708;53.124;23.190;2023-08-17T09:38:10;35.50;1.00
32215;DHT22;18708;53.124;23.190;2023-08-17T09:40:36;35.30;1.00
32215;DHT22;18708;53.124;23.190;2023-08-17T09:43:02;35.40;1.00
32215;DHT22;18708;53.124;23.190;2023-08-17T09:45:30;34.90;1.00
32215;DHT22;18708;53.124;23.190;2023-08-17T09:47:58;34.60;1.00
32215;DHT22;18708;53.124;23.190;2023-08-17T09:50:23;34.10;1.00
32215;DHT22;18708;53.124;23.190;2023-08-17T09:52:52;33.80;1.00
32215;DHT22;18708;53.124;23.190;2023-08-17T09:55:18;34.30;1.00
32215;DHT22;18708;53.124;23.190;2023-08-17T09:57:44;34.20;1.00
32215;DHT22;18708;53.124;23.190;2023-08-17T10:00:10;34.20;1.00
32215;DHT22;18708;53.124;23.190;2023-08-17T10:02:38;34.50;1.00
32215;DHT22;18708;53.124;23.190;2023-08-17T10:05:07;34.60;1.00
32215;DHT22;18708;53.124;23.190;2023-08-17T10:07:36;35.10;1.00
32215;DHT22;18708;53.124;23.190;2023-08-17T10:10:04;35.10;1.00
32215;DHT22;18708;53.124;23.190;2023-08-17T10:12:32;35.50;1.00
32215;DHT22;18708;53.124;23.190;2023-08-17T10:15:07;35.70;1.00
32215;DHT22;18708;53.124;23.190;2023-08-17T10:17:35;35.80;1.00
32215;DHT22;18708;53.124;23.190;2023-08-17T10:20:04;36.40;1.00
32215;DHT22;18708;53.124;23.190;2023-08-17T10:22:34;36.20;1.00
32215;DHT22;18708;53.124;23.190;2023-08-17T10:25:04;35.90;1.00
32215;DHT22;18708;53.124;23.190;2023-08-17T10:27:31;36.30;1.00
32215;DHT22;18708;53.124;23.190;2023-08-17T10:29:57;36.60;1.00
32215;DHT22;18708;53.124;23.190;2023-08-17T10:32:23;36.10;1.00
32215;DHT22;18708;53.124;23.190;2023-08-17T10:34:50;36.80;1.00
32215;DHT22;18708;53.124;23.190;2023-08-17T10:37:17;37.30;1.00
32215;DHT22;18708;53.124;23.190;2023-08-17T10:39:46;37.60;1.00
32215;DHT22;18708;53.124;23.190;2023-08-17T10:42:12;37.30;1.00
32215;DHT22;18708;53.124;23.190;2023-08-17T10:44:43;37.70;1.00
32215;DHT22;18708;53.124;23.190;2023-08-17T10:49:43;37.60;1.00
32215;DHT22;18708;53.124;23.190;2023-08-17T10:52:09;37.50;1.00
32215;DHT22;18708;53.124;23.190;2023-08-17T10:54:38;36.60;1.00
32215;DHT22;18708;53.124;23.190;2023-08-17T11:00:04;37.50;1.00
32215;DHT22;18708;53.124;23.190;2023-08-17T11:02:33;37.00;1.00
32215;DHT22;18708;53.124;23.190;2023-08-17T11:05:00;37.20;1.00
32215;DHT22;18708;53.124;23.190;2023-08-17T11:07:27;37.60;1.00
32215;DHT22;18708;53.124;23.190;2023-08-17T11:09:56;37.60;1.00
32215;DHT22;18708;53.124;23.190;2023-08-17T11:12:25;37.80;1.00
32215;DHT22;18708;53.124;23.190;2023-08-17T11:14:51;37.40;1.00
32215;DHT22;18708;53.124;23.190;2023-08-17T11:17:20;37.10;1.00
32215;DHT22;18708;53.124;23.190;2023-08-17T11:19:45;37.70;1.00
32215;DHT22;18708;53.124;23.190;2023-08-17T11:22:11;37.60;1.00
32215;DHT22;18708;53.124;23.190;2023-08-17T11:24:37;37.70;1.00
32215;DHT22;18708;53.124;23.190;2023-08-17T11:27:05;37.60;1.00
32215;DHT22;18708;53.124;23.190;2023-08-17T11:29:31;37.50;1.00
32215;DHT22;18708;53.124;23.190;2023-08-17T11:31:57;37.90;1.00
32215;DHT22;18708;53.124;23.190;2023-08-17T11:34:23;38.60;1.00
32215;DHT22;18708;53.124;23.190;2023-08-17T11:36:48;38.00;1.00
32215;DHT22;18708;53.124;23.190;2023-08-17T11:39:14;38.20;1.00
32215;DHT22;18708;53.124;23.190;2023-08-17T11:41:42;38.30;1.00
32215;DHT22;18708;53.124;23.190;2023-08-17T11:44:09;38.60;1.00
32215;DHT22;18708;53.124;23.190;2023-08-17T11:46:35;38.80;1.00
32215;DHT22;18708;53.124;23.190;2023-08-17T11:49:01;38.60;1.00
32215;DHT22;18708;53.124;23.190;2023-08-17T11:51:30;38.30;1.00
32215;DHT22;18708;53.124;23.190;2023-08-17T11:53:59;38.20;1.00
32215;DHT22;18708;53.124;23.190;2023-08-17T11:56:25;38.40;1.00
32215;DHT22;18708;53.124;23.190;2023-08-17T11:58:50;38.30;1.00
32215;DHT22;18708;53.124;23.190;2023-08-17T12:01:16;38.40;1.00
32215;DHT22;18708;53.124;23.190;2023-08-17T12:03:41;37.30;1.00
32215;DHT22;18708;53.124;23.190;2023-08-17T12:06:07;37.20;1.00
32215;DHT22;18708;53.124;23.190;2023-08-17T12:08:33;37.20;1.00
32215;DHT22;18708;53.124;23.190;2023-08-17T12:10:59;37.70;1.00
32215;DHT22;18708;53.124;23.190;2023-08-17T12:13:34;38.40;1.00
32215;DHT22;18708;53.124;23.190;2023-08-17T12:16:00;37.50;1.00
32215;DHT22;18708;53.124;23.190;2023-08-17T12:18:26;38.10;1.00
32215;DHT22;18708;53.124;23.190;2023-08-17T12:20:52;38.40;1.00
32215;DHT22;18708;53.124;23.190;2023-08-17T12:23:18;38.60;1.00
32215;DHT22;18708;53.124;23.190;2023-08-17T12:25:43;37.10;1.00
32215;DHT22;18708;53.124;23.190;2023-08-17T12:28:12;37.60;1.00
32215;DHT22;18708;53.124;23.190;2023-08-17T12:30:37;37.30;1.00
32215;DHT22;18708;53.124;23.190;2023-08-17T12:33:03;36.90;1.00
32215;DHT22;18708;53.124;23.190;2023-08-17T12:35:31;36.90;1.00
32215;DHT22;18708;53.124;23.190;2023-08-17T12:37:57;36.90;1.00
32215;DHT22;18708;53.124;23.190;2023-08-17T12:40:23;36.60;1.00
32215;DHT22;18708;53.124;23.190;2023-08-17T12:42:48;36.50;1.00
32215;DHT22;18708;53.124;23.190;2023-08-17T12:45:14;36.20;1.00
32215;DHT22;18708;53.124;23.190;2023-08-17T12:47:42;36.80;1.00
32215;DHT22;18708;53.124;23.190;2023-08-17T12:50:08;37.30;1.00
32215;DHT22;18708;53.124;23.190;2023-08-17T12:52:34;37.60;1.00
32215;DHT22;18708;53.124;23.190;2023-08-17T12:55:00;38.00;1.00
32215;DHT22;18708;53.124;23.190;2023-08-17T12:57:25;38.20;1.00
32215;DHT22;18708;53.124;23.190;2023-08-17T12:59:52;38.50;1.00
32215;DHT22;18708;53.124;23.190;2023-08-17T13:02:19;37.50;1.00
32215;DHT22;18708;53.124;23.190;2023-08-17T13:04:44;36.70;1.00
32215;DHT22;18708;53.124;23.190;2023-08-17T13:07:10;36.70;1.00
32215;DHT22;18708;53.124;23.190;2023-08-17T13:09:35;36.40;1.00
32215;DHT22;18708;53.124;23.190;2023-08-17T13:12:01;36.80;1.00
32215;DHT22;18708;53.124;23.190;2023-08-17T13:14:26;37.00;1.00
32215;DHT22;18708;53.124;23.190;2023-08-17T13:16:52;37.00;1.00
32215;DHT22;18708;53.124;23.190;2023-08-17T13:19:18;37.00;1.00
32215;DHT22;18708;53.124;23.190;2023-08-17T13:21:46;37.40;1.00
32215;DHT22;18708;53.124;23.190;2023-08-17T13:24:14;37.00;1.00
32215;DHT22;18708;53.124;23.190;2023-08-17T13:26:42;36.70;1.00
32215;DHT22;18708;53.124;23.190;2023-08-17T13:29:07;36.70;1.00
32215;DHT22;18708;53.124;23.190;2023-08-17T13:31:34;36.30;1.00
32215;DHT22;18708;53.124;23.190;2023-08-17T13:34:00;36.30;1.00
32215;DHT22;18708;53.124;23.190;2023-08-17T13:36:25;35.80;1.00
32215;DHT22;18708;53.124;23.190;2023-08-17T13:38:51;35.70;1.00
32215;DHT22;18708;53.124;23.190;2023-08-17T13:41:17;35.00;1.00
32215;DHT22;18708;53.124;23.190;2023-08-17T13:43:42;35.00;1.00
32215;DHT22;18708;53.124;23.190;2023-08-17T13:46:08;34.80;1.00
32215;DHT22;18708;53.124;23.190;2023-08-17T13:48:33;34.80;1.00
32215;DHT22;18708;53.124;23.190;2023-08-17T13:50:59;34.90;1.00
32215;DHT22;18708;53.124;23.190;2023-08-17T13:53:24;35.10;1.00
32215;DHT22;18708;53.124;23.190;2023-08-17T13:55:50;34.90;1.00
32215;DHT22;18708;53.124;23.190;2023-08-17T13:58:15;34.60;1.00
32215;DHT22;18708;53.124;23.190;2023-08-17T14:00:41;34.60;1.00
32215;DHT22;18708;53.124;23.190;2023-08-17T14:03:07;34.30;1.00
32215;DHT22;18708;53.124;23.190;2023-08-17T14:05:32;34.30;1.00
32215;DHT22;18708;53.124;23.190;2023-08-17T14:07:58;34.30;1.00
32215;DHT22;18708;53.124;23.190;2023-08-17T14:10:24;33.90;1.00
32215;DHT22;18708;53.124;23.190;2023-08-17T14:12:49;33.20;1.00
32215;DHT22;18708;53.124;23.190;2023-08-17T14:15:15;33.20;1.00
32215;DHT22;18708;53.124;23.190;2023-08-17T14:17:43;33.30;1.00
32215;DHT22;18708;53.124;23.190;2023-08-17T14:20:08;33.20;1.00
32215;DHT22;18708;53.124;23.190;2023-08-17T14:22:34;33.20;1.00
32215;DHT22;18708;53.124;23.190;2023-08-17T14:24:59;33.10;1.00
32215;DHT22;18708;53.124;23.190;2023-08-17T14:27:25;33.00;1.00
32215;DHT22;18708;53.124;23.190;2023-08-17T14:29:50;32.70;1.00
32215;DHT22;18708;53.124;23.190;2023-08-17T14:32:18;32.60;1.00
32215;DHT22;18708;53.124;23.190;2023-08-17T14:34:44;32.80;1.00
32215;DHT22;18708;53.124;23.190;2023-08-17T14:37:09;32.80;1.00
32215;DHT22;18708;53.124;23.190;2023-08-17T14:39:35;32.90;1.00
32215;DHT22;18708;53.124;23.190;2023-08-17T14:42:00;33.20;1.00
32215;DHT22;18708;53.124;23.190;2023-08-17T14:44:26;33.20;1.00
32215;DHT22;18708;53.124;23.190;2023-08-17T14:46:51;33.30;1.00
32215;DHT22;18708;53.124;23.190;2023-08-17T14:49:17;33.40;1.00
32215;DHT22;18708;53.124;23.190;2023-08-17T14:51:42;33.30;1.00
32215;DHT22;18708;53.124;23.190;2023-08-17T14:54:09;33.50;1.00
32215;DHT22;18708;53.124;23.190;2023-08-17T14:56:35;33.40;1.00
32215;DHT22;18708;53.124;23.190;2023-08-17T14:59:01;33.40;1.00
32215;DHT22;18708;53.124;23.190;2023-08-17T15:01:27;33.60;1.00
32215;DHT22;18708;53.124;23.190;2023-08-17T15:03:53;33.60;1.00
32215;DHT22;18708;53.124;23.190;2023-08-17T15:06:19;33.40;1.00
32215;DHT22;18708;53.124;23.190;2023-08-17T15:08:51;33.20;1.00
32215;DHT22;18708;53.124;23.190;2023-08-17T15:11:16;32.80;1.00
32215;DHT22;18708;53.124;23.190;2023-08-17T15:13:42;32.50;1.00
32215;DHT22;18708;53.124;23.190;2023-08-17T15:16:10;32.60;1.00
32215;DHT22;18708;53.124;23.190;2023-08-17T15:18:36;32.70;1.00
32215;DHT22;18708;53.124;23.190;2023-08-17T15:21:02;32.80;1.00
32215;DHT22;18708;53.124;23.190;2023-08-17T15:23:27;32.70;1.00
32215;DHT22;18708;53.124;23.190;2023-08-17T15:25:53;32.80;1.00
32215;DHT22;18708;53.124;23.190;2023-08-17T15:28:18;32.80;1.00
32215;DHT22;18708;53.124;23.190;2023-08-17T15:30:44;32.70;1.00
32215;DHT22;18708;53.124;23.190;2023-08-17T15:33:09;32.60;1.00